sensor_id;sensor_type;location;lat;lon;timestamp;pressure;altitude;pressure_sealevel;temperature;humidity
20455;BME280;10386;54.314;10.022;2023-03-15T00:01:44;100577.16;;;2.49;100.00
20455;BME280;10386;54.314;10.022;2023-03-15T00:04:15;100579.97;;;2.46;100.00
20455;BME280;10386;54.314;10.022;2023-03-15T00:06:42;100579.88;;;2.47;100.00
20455;BME280;10386;54.314;10.022;2023-03-15T00:09:08;100587.91;;;2.47;100.00
20455;BME280;10386;54.314;10.022;2023-03-15T00:11:35;100590.47;;;2.50;100.00
20455;BME280;10386;54.314;10.022;2023-03-15T00:14:02;100594.66;;;2.57;100.00
20455;BME280;10386;54.314;10.022;2023-03-15T00:16:29;100589.72;;;2.47;100.00
20455;BME280;10386;54.314;10.022;2023-03-15T00:18:58;100595.94;;;2.47;100.00
20455;BME280;10386;54.314;10.022;2023-03-15T00:21:25;100616.31;;;2.51;100.00
20455;BME280;10386;54.314;10.022;2023-03-15T00:23:51;100644.53;;;2.38;100.00
20455;BME280;10386;54.314;10.022;2023-03-15T00:26:18;100647.81;;;2.25;100.00
20455;BME280;10386;54.314;10.022;2023-03-15T00:28:45;100645.25;;;2.22;100.00
20455;BME280;10386;54.314;10.022;2023-03-15T00:31:13;100644.78;;;2.11;100.00
20455;BME280;10386;54.314;10.022;2023-03-15T00:33:40;100635.38;;;2.01;100.00
20455;BME280;10386;54.314;10.022;2023-03-15T00:36:08;100641.63;;;2.01;100.00
20455;BME280;10386;54.314;10.022;2023-03-15T00:38:36;100642.09;;;1.89;100.00
20455;BME280;10386;54.314;10.022;2023-03-15T00:41:11;100642.91;;;1.91;100.00
20455;BME280;10386;54.314;10.022;2023-03-15T00:43:38;100640.38;;;1.88;100.00
20455;BME280;10386;54.314;10.022;2023-03-15T00:46:06;100636.00;;;1.86;100.00
20455;BME280;10386;54.314;10.022;2023-03-15T00:48:34;100631.66;;;1.83;100.00
20455;BME280;10386;54.314;10.022;2023-03-15T00:53:36;100609.88;;;1.92;100.00
20455;BME280;10386;54.314;10.022;2023-03-15T00:56:17;100606.00;;;1.99;100.00
20455;BME280;10386;54.314;10.022;2023-03-15T00:58:44;100607.69;;;2.02;100.00
20455;BME280;10386;54.314;10.022;2023-03-15T01:01:21;100615.47;;;1.86;100.00
20455;BME280;10386;54.314;10.022;2023-03-15T01:03:49;100612.03;;;1.83;100.00
20455;BME280;10386;54.314;10.022;2023-03-15T01:06:19;100612.22;;;2.00;100.00
20455;BME280;10386;54.314;10.022;2023-03-15T01:08:47;100616.97;;;1.93;100.00
20455;BME280;10386;54.314;10.022;2023-03-15T01:11:19;100613.72;;;1.85;100.00
20455;BME280;10386;54.314;10.022;2023-03-15T01:13:47;100611.91;;;1.86;100.00
20455;BME280;10386;54.314;10.022;2023-03-15T01:16:14;100617.13;;;1.89;100.00
20455;BME280;10386;54.314;10.022;2023-03-15T01:18:41;100620.81;;;1.86;100.00
20455;BME280;10386;54.314;10.022;2023-03-15T01:21:10;100623.28;;;1.91;100.00
20455;BME280;10386;54.314;10.022;2023-03-15T01:23:37;100618.03;;;1.89;100.00
20455;BME280;10386;54.314;10.022;2023-03-15T01:26:06;100614.16;;;1.96;100.00
20455;BME280;10386;54.314;10.022;2023-03-15T01:28:33;100620.00;;;2.06;100.00
20455;BME280;10386;54.314;10.022;2023-03-15T01:31:00;100619.72;;;2.13;100.00
20455;BME280;10386;54.314;10.022;2023-03-15T01:33:27;100625.44;;;2.04;100.00
20455;BME280;10386;54.314;10.022;2023-03-15T01:36:02;100628.97;;;2.05;100.00
20455;BME280;10386;54.314;10.022;2023-03-15T01:38:29;100633.16;;;2.12;100.00
20455;BME280;10386;54.314;10.022;2023-03-15T01:40:56;100628.13;;;2.04;100.00
20455;BME280;10386;54.314;10.022;2023-03-15T01:43:25;100630.41;;;2.13;100.00
20455;BME280;10386;54.314;10.022;2023-03-15T01:48:33;100620.47;;;2.17;100.00
20455;BME280;10386;54.314;10.022;2023-03-15T01:51:05;100618.94;;;2.10;100.00
20455;BME280;10386;54.314;10.022;2023-03-15T01:53:34;100618.84;;;2.13;100.00
20455;BME280;10386;54.314;10.022;2023-03-15T01:56:03;100620.78;;;2.09;100.00
20455;BME280;10386;54.314;10.022;2023-03-15T01:58:30;100628.13;;;2.04;100.00
20455;BME280;10386;54.314;10.022;2023-03-15T02:01:01;100635.47;;;1.99;100.00
20455;BME280;10386;54.314;10.022;2023-03-15T02:03:33;100646.22;;;1.98;100.00
20455;BME280;10386;54.314;10.022;2023-03-15T02:06:06;100647.22;;;1.95;100.00
20455;BME280;10386;54.314;10.022;2023-03-15T02:08:38;100660.34;;;2.01;100.00
20455;BME280;10386;54.314;10.022;2023-03-15T02:11:07;100665.97;;;1.95;100.00
20455;BME280;10386;54.314;10.022;2023-03-15T02:13:34;100687.03;;;2.03;100.00
20455;BME280;10386;54.314;10.022;2023-03-15T02:16:01;100697.25;;;1.93;100.00
20455;BME280;10386;54.314;10.022;2023-03-15T02:18:32;100693.56;;;1.96;100.00
20455;BME280;10386;54.314;10.022;2023-03-15T02:21:46;100703.72;;;1.88;100.00
20455;BME280;10386;54.314;10.022;2023-03-15T02:25:02;100711.03;;;1.83;100.00
20455;BME280;10386;54.314;10.022;2023-03-15T02:27:35;100711.72;;;1.88;100.00
20455;BME280;10386;54.314;10.022;2023-03-15T02:30:03;100721.28;;;1.95;100.00
20455;BME280;10386;54.314;10.022;2023-03-15T02:32:30;100723.91;;;1.96;100.00
20455;BME280;10386;54.314;10.022;2023-03-15T02:34:57;100733.22;;;1.86;100.00
20455;BME280;10386;54.314;10.022;2023-03-15T02:37:24;100736.88;;;1.84;100.00
20455;BME280;10386;54.314;10.022;2023-03-15T02:39:51;100734.53;;;1.75;100.00
20455;BME280;10386;54.314;10.022;2023-03-15T02:42:18;100729.16;;;1.76;100.00
20455;BME280;10386;54.314;10.022;2023-03-15T02:44:47;100728.44;;;1.71;100.00
20455;BME280;10386;54.314;10.022;2023-03-15T02:47:25;100720.50;;;1.68;100.00
20455;BME280;10386;54.314;10.022;2023-03-15T02:49:53;100721.50;;;1.66;100.00
20455;BME280;10386;54.314;10.022;2023-03-15T02:52:21;100697.31;;;1.69;100.00
20455;BME280;10386;54.314;10.022;2023-03-15T02:54:48;100685.63;;;1.71;100.00
20455;BME280;10386;54.314;10.022;2023-03-15T02:57:16;100679.81;;;1.83;100.00
20455;BME280;10386;54.314;10.022;2023-03-15T02:59:44;100671.13;;;1.77;100.00
20455;BME280;10386;54.314;10.022;2023-03-15T03:02:11;100675.56;;;1.78;100.00
20455;BME280;10386;54.314;10.022;2023-03-15T03:04:38;100653.66;;;1.90;100.00
20455;BME280;10386;54.314;10.022;2023-03-15T03:07:05;100660.50;;;1.75;100.00
20455;BME280;10386;54.314;10.022;2023-03-15T03:09:31;100659.91;;;1.67;100.00
20455;BME280;10386;54.314;10.022;2023-03-15T03:11:58;100647.75;;;1.59;100.00
20455;BME280;10386;54.314;10.022;2023-03-15T03:14:25;100655.31;;;1.48;100.00
20455;BME280;10386;54.314;10.022;2023-03-15T03:16:55;100667.06;;;1.44;100.00
20455;BME280;10386;54.314;10.022;2023-03-15T03:19:22;100669.97;;;1.38;100.00
20455;BME280;10386;54.314;10.022;2023-03-15T03:21:52;100664.03;;;1.30;100.00
20455;BME280;10386;54.314;10.022;2023-03-15T03:24:19;100665.22;;;1.22;100.00
20455;BME280;10386;54.314;10.022;2023-03-15T03:26:46;100662.78;;;1.16;100.00
20455;BME280;10386;54.314;10.022;2023-03-15T03:29:13;100649.50;;;1.13;100.00
20455;BME280;10386;54.314;10.022;2023-03-15T03:31:43;100645.09;;;1.12;100.00
20455;BME280;10386;54.314;10.022;2023-03-15T03:34:10;100654.38;;;1.02;100.00
20455;BME280;10386;54.314;10.022;2023-03-15T03:36:44;100641.94;;;1.01;100.00
20455;BME280;10386;54.314;10.022;2023-03-15T03:39:10;100642.09;;;0.96;100.00
20455;BME280;10386;54.314;10.022;2023-03-15T03:41:37;100643.34;;;0.86;100.00
20455;BME280;10386;54.314;10.022;2023-03-15T03:44:04;100644.13;;;0.90;100.00
20455;BME280;10386;54.314;10.022;2023-03-15T03:46:30;100637.16;;;0.86;100.00
20455;BME280;10386;54.314;10.022;2023-03-15T03:48:57;100634.63;;;0.81;100.00
20455;BME280;10386;54.314;10.022;2023-03-15T03:51:24;100630.81;;;0.88;100.00
20455;BME280;10386;54.314;10.022;2023-03-15T03:53:51;100634.66;;;0.80;100.00
20455;BME280;10386;54.314;10.022;2023-03-15T03:56:18;100651.06;;;0.69;100.00
20455;BME280;10386;54.314;10.022;2023-03-15T03:58:44;100652.59;;;0.76;100.00
20455;BME280;10386;54.314;10.022;2023-03-15T04:01:11;100650.03;;;0.73;100.00
20455;BME280;10386;54.314;10.022;2023-03-15T04:03:38;100645.84;;;0.66;100.00
20455;BME280;10386;54.314;10.022;2023-03-15T04:06:04;100652.34;;;0.58;100.00
20455;BME280;10386;54.314;10.022;2023-03-15T04:08:31;100653.97;;;0.63;100.00
20455;BME280;10386;54.314;10.022;2023-03-15T04:11:00;100656.63;;;0.63;100.00
20455;BME280;10386;54.314;10.022;2023-03-15T04:13:29;100646.47;;;0.73;100.00
20455;BME280;10386;54.314;10.022;2023-03-15T04:15:56;100646.38;;;0.76;100.00
20455;BME280;10386;54.314;10.022;2023-03-15T04:18:23;100643.44;;;0.83;100.00
20455;BME280;10386;54.314;10.022;2023-03-15T04:20:50;100641.50;;;0.88;100.00
20455;BME280;10386;54.314;10.022;2023-03-15T04:23:21;100633.38;;;0.91;100.00
20455;BME280;10386;54.314;10.022;2023-03-15T04:25:52;100626.03;;;0.98;100.00
20455;BME280;10386;54.314;10.022;2023-03-15T04:28:20;100616.41;;;0.92;100.00
20455;BME280;10386;54.314;10.022;2023-03-15T04:30:49;100626.34;;;0.89;100.00
20455;BME280;10386;54.314;10.022;2023-03-15T04:33:16;100621.31;;;0.80;100.00
20455;BME280;10386;54.314;10.022;2023-03-15T04:35:43;100619.44;;;0.82;100.00
20455;BME280;10386;54.314;10.022;2023-03-15T04:38:10;100615.84;;;0.83;100.00
20455;BME280;10386;54.314;10.022;2023-03-15T04:40:36;100609.75;;;0.79;100.00
20455;BME280;10386;54.314;10.022;2023-03-15T04:43:04;100601.63;;;0.82;100.00
20455;BME280;10386;54.314;10.022;2023-03-15T04:45:31;100603.75;;;0.73;100.00
20455;BME280;10386;54.314;10.022;2023-03-15T04:47:59;100599.88;;;0.81;100.00
20455;BME280;10386;54.314;10.022;2023-03-15T04:50:28;100606.63;;;0.67;100.00
20455;BME280;10386;54.314;10.022;2023-03-15T04:52:57;100604.63;;;0.73;100.00
20455;BME280;10386;54.314;10.022;2023-03-15T04:55:25;100608.38;;;0.68;100.00
20455;BME280;10386;54.314;10.022;2023-03-15T04:57:52;100609.47;;;0.62;100.00
20455;BME280;10386;54.314;10.022;2023-03-15T05:00:19;100607.56;;;0.66;100.00
20455;BME280;10386;54.314;10.022;2023-03-15T05:02:47;100605.06;;;0.61;100.00
20455;BME280;10386;54.314;10.022;2023-03-15T05:05:21;100606.31;;;0.51;100.00
20455;BME280;10386;54.314;10.022;2023-03-15T05:07:49;100602.66;;;0.54;100.00
20455;BME280;10386;54.314;10.022;2023-03-15T05:10:16;100597.19;;;0.57;100.00
20455;BME280;10386;54.314;10.022;2023-03-15T05:12:43;100590.94;;;0.58;100.00
20455;BME280;10386;54.314;10.022;2023-03-15T05:15:10;100606.34;;;0.50;100.00
20455;BME280;10386;54.314;10.022;2023-03-15T05:17:37;100601.94;;;0.49;100.00
20455;BME280;10386;54.314;10.022;2023-03-15T05:20:04;100609.13;;;0.47;100.00
20455;BME280;10386;54.314;10.022;2023-03-15T05:22:39;100533.22;;;0.54;100.00
20455;BME280;10386;54.314;10.022;2023-03-15T05:25:07;100540.25;;;0.56;100.00
20455;BME280;10386;54.314;10.022;2023-03-15T05:27:35;100536.50;;;0.62;100.00
20455;BME280;10386;54.314;10.022;2023-03-15T05:30:03;100531.97;;;0.64;100.00
20455;BME280;10386;54.314;10.022;2023-03-15T05:32:30;100538.34;;;0.60;100.00
20455;BME280;10386;54.314;10.022;2023-03-15T05:35:00;100535.41;;;0.67;100.00
20455;BME280;10386;54.314;10.022;2023-03-15T05:37:27;100539.88;;;0.67;100.00
20455;BME280;10386;54.314;10.022;2023-03-15T05:39:54;100528.00;;;0.75;100.00
20455;BME280;10386;54.314;10.022;2023-03-15T05:42:21;100521.25;;;0.88;100.00
20455;BME280;10386;54.314;10.022;2023-03-15T05:44:55;100536.31;;;0.91;100.00
20455;BME280;10386;54.314;10.022;2023-03-15T05:47:22;100532.59;;;0.95;100.00
20455;BME280;10386;54.314;10.022;2023-03-15T05:49:49;100534.13;;;1.02;100.00
20455;BME280;10386;54.314;10.022;2023-03-15T05:52:16;100552.00;;;1.00;100.00
20455;BME280;10386;54.314;10.022;2023-03-15T05:54:43;100555.44;;;1.03;100.00
20455;BME280;10386;54.314;10.022;2023-03-15T05:57:09;100550.03;;;1.05;100.00
20455;BME280;10386;54.314;10.022;2023-03-15T05:59:37;100545.44;;;1.08;100.00
20455;BME280;10386;54.314;10.022;2023-03-15T06:02:03;100553.19;;;1.16;100.00
20455;BME280;10386;54.314;10.022;2023-03-15T06:04:30;100559.97;;;1.24;100.00
20455;BME280;10386;54.314;10.022;2023-03-15T06:06:57;100557.81;;;1.33;100.00
20455;BME280;10386;54.314;10.022;2023-03-15T06:09:24;100573.22;;;1.50;100.00
20455;BME280;10386;54.314;10.022;2023-03-15T06:11:50;100577.13;;;1.41;100.00
20455;BME280;10386;54.314;10.022;2023-03-15T06:14:17;100572.69;;;1.40;100.00
20455;BME280;10386;54.314;10.022;2023-03-15T06:16:44;100568.25;;;1.41;100.00
20455;BME280;10386;54.314;10.022;2023-03-15T06:19:11;100555.91;;;1.37;100.00
20455;BME280;10386;54.314;10.022;2023-03-15T06:21:38;100556.88;;;1.34;100.00
20455;BME280;10386;54.314;10.022;2023-03-15T06:24:05;100560.72;;;1.28;100.00
20455;BME280;10386;54.314;10.022;2023-03-15T06:26:32;100556.78;;;1.15;100.00
20455;BME280;10386;54.314;10.022;2023-03-15T06:28:58;100557.75;;;1.12;100.00
20455;BME280;10386;54.314;10.022;2023-03-15T06:31:25;100563.41;;;1.05;100.00
20455;BME280;10386;54.314;10.022;2023-03-15T06:33:52;100567.00;;;1.04;100.00
20455;BME280;10386;54.314;10.022;2023-03-15T06:36:18;100571.00;;;1.15;100.00
20455;BME280;10386;54.314;10.022;2023-03-15T06:38:45;100568.41;;;1.36;100.00
20455;BME280;10386;54.314;10.022;2023-03-15T06:41:12;100566.06;;;1.73;100.00
20455;BME280;10386;54.314;10.022;2023-03-15T06:43:41;100556.13;;;1.97;100.00
20455;BME280;10386;54.314;10.022;2023-03-15T06:46:08;100569.16;;;1.84;100.00
20455;BME280;10386;54.314;10.022;2023-03-15T06:48:34;100575.88;;;1.73;100.00
20455;BME280;10386;54.314;10.022;2023-03-15T06:51:01;100585.63;;;1.74;100.00
20455;BME280;10386;54.314;10.022;2023-03-15T06:53:31;100599.13;;;1.71;100.00
20455;BME280;10386;54.314;10.022;2023-03-15T06:55:58;100597.75;;;1.61;100.00
20455;BME280;10386;54.314;10.022;2023-03-15T06:58:24;100607.31;;;1.66;100.00
20455;BME280;10386;54.314;10.022;2023-03-15T07:00:51;100613.59;;;1.65;100.00
20455;BME280;10386;54.314;10.022;2023-03-15T07:03:18;100607.16;;;1.71;100.00
20455;BME280;10386;54.314;10.022;2023-03-15T07:05:46;100618.50;;;1.77;100.00
20455;BME280;10386;54.314;10.022;2023-03-15T07:08:18;100616.97;;;1.93;100.00
20455;BME280;10386;54.314;10.022;2023-03-15T07:10:45;100617.00;;;1.92;100.00
20455;BME280;10386;54.314;10.022;2023-03-15T07:13:12;100624.09;;;2.16;100.00
20455;BME280;10386;54.314;10.022;2023-03-15T07:15:39;100621.94;;;2.02;100.00
20455;BME280;10386;54.314;10.022;2023-03-15T07:18:06;100621.31;;;2.17;100.00
20455;BME280;10386;54.314;10.022;2023-03-15T07:20:32;100621.63;;;2.31;100.00
20455;BME280;10386;54.314;10.022;2023-03-15T07:23:03;100613.16;;;2.42;100.00
20455;BME280;10386;54.314;10.022;2023-03-15T07:25:29;100611.66;;;2.56;100.00
20455;BME280;10386;54.314;10.022;2023-03-15T07:27:56;100618.44;;;2.43;100.00
20455;BME280;10386;54.314;10.022;2023-03-15T07:30:23;100632.38;;;2.51;100.00
20455;BME280;10386;54.314;10.022;2023-03-15T07:32:50;100623.91;;;2.81;100.00
20455;BME280;10386;54.314;10.022;2023-03-15T07:35:17;100625.34;;;2.90;100.00
20455;BME280;10386;54.314;10.022;2023-03-15T07:37:44;100642.94;;;2.75;100.00
20455;BME280;10386;54.314;10.022;2023-03-15T07:40:11;100658.03;;;2.78;100.00
20455;BME280;10386;54.314;10.022;2023-03-15T07:42:41;100649.06;;;2.79;100.00
20455;BME280;10386;54.314;10.022;2023-03-15T07:45:09;100661.81;;;2.94;100.00
20455;BME280;10386;54.314;10.022;2023-03-15T07:47:36;100659.06;;;3.15;100.00
20455;BME280;10386;54.314;10.022;2023-03-15T07:50:05;100657.16;;;3.37;100.00
20455;BME280;10386;54.314;10.022;2023-03-15T07:52:32;100670.63;;;3.56;100.00
20455;BME280;10386;54.314;10.022;2023-03-15T07:54:58;100694.25;;;3.28;100.00
20455;BME280;10386;54.314;10.022;2023-03-15T07:57:25;100706.59;;;3.32;100.00
20455;BME280;10386;54.314;10.022;2023-03-15T07:59:54;100715.69;;;3.08;100.00
20455;BME280;10386;54.314;10.022;2023-03-15T08:02:24;100714.44;;;3.16;100.00
20455;BME280;10386;54.314;10.022;2023-03-15T08:04:51;100726.44;;;3.28;100.00
20455;BME280;10386;54.314;10.022;2023-03-15T08:07:18;100734.09;;;3.37;100.00
20455;BME280;10386;54.314;10.022;2023-03-15T08:09:45;100746.97;;;3.29;100.00
20455;BME280;10386;54.314;10.022;2023-03-15T08:12:12;100758.00;;;3.43;100.00
20455;BME280;10386;54.314;10.022;2023-03-15T08:14:39;100839.91;;;3.30;100.00
20455;BME280;10386;54.314;10.022;2023-03-15T08:17:05;100861.50;;;3.27;100.00
20455;BME280;10386;54.314;10.022;2023-03-15T08:19:32;100878.72;;;3.00;100.00
20455;BME280;10386;54.314;10.022;2023-03-15T08:21:59;100882.38;;;2.76;100.00
20455;BME280;10386;54.314;10.022;2023-03-15T08:24:26;100902.22;;;2.48;100.00
20455;BME280;10386;54.314;10.022;2023-03-15T08:26:52;100902.84;;;2.31;100.00
20455;BME280;10386;54.314;10.022;2023-03-15T08:29:19;100902.19;;;2.25;100.00
20455;BME280;10386;54.314;10.022;2023-03-15T08:31:46;100896.06;;;2.21;100.00
20455;BME280;10386;54.314;10.022;2023-03-15T08:34:13;100893.06;;;2.30;100.00
20455;BME280;10386;54.314;10.022;2023-03-15T08:36:41;100885.97;;;2.75;100.00
20455;BME280;10386;54.314;10.022;2023-03-15T08:39:08;100878.91;;;3.17;100.00
20455;BME280;10386;54.314;10.022;2023-03-15T08:41:34;100873.25;;;3.46;100.00
20455;BME280;10386;54.314;10.022;2023-03-15T08:44:01;100873.91;;;3.51;100.00
20455;BME280;10386;54.314;10.022;2023-03-15T08:46:32;100878.78;;;3.83;100.00
20455;BME280;10386;54.314;10.022;2023-03-15T08:48:59;100878.16;;;3.76;100.00
20455;BME280;10386;54.314;10.022;2023-03-15T08:51:25;100882.09;;;4.09;100.00
20455;BME280;10386;54.314;10.022;2023-03-15T08:53:52;100885.19;;;4.00;100.00
20455;BME280;10386;54.314;10.022;2023-03-15T08:56:19;100890.66;;;4.37;100.00
20455;BME280;10386;54.314;10.022;2023-03-15T08:58:46;100896.22;;;4.52;100.00
20455;BME280;10386;54.314;10.022;2023-03-15T09:01:14;100909.00;;;4.47;100.00
20455;BME280;10386;54.314;10.022;2023-03-15T09:03:41;100921.50;;;4.67;100.00
20455;BME280;10386;54.314;10.022;2023-03-15T09:06:08;100934.28;;;4.62;100.00
20455;BME280;10386;54.314;10.022;2023-03-15T09:08:35;100952.53;;;4.55;100.00
20455;BME280;10386;54.314;10.022;2023-03-15T09:11:02;100967.97;;;4.70;100.00
20455;BME280;10386;54.314;10.022;2023-03-15T09:13:29;100978.09;;;4.84;100.00
20455;BME280;10386;54.314;10.022;2023-03-15T09:15:56;101014.88;;;4.43;100.00
20455;BME280;10386;54.314;10.022;2023-03-15T09:18:23;101013.28;;;4.59;100.00
20455;BME280;10386;54.314;10.022;2023-03-15T09:20:49;101025.09;;;4.75;100.00
20455;BME280;10386;54.314;10.022;2023-03-15T09:23:16;101020.88;;;5.08;100.00
20455;BME280;10386;54.314;10.022;2023-03-15T09:25:43;101036.28;;;5.43;100.00
20455;BME280;10386;54.314;10.022;2023-03-15T09:28:10;101063.34;;;4.82;100.00
20455;BME280;10386;54.314;10.022;2023-03-15T09:30:38;101069.72;;;4.79;100.00
20455;BME280;10386;54.314;10.022;2023-03-15T09:33:06;101079.91;;;4.73;100.00
20455;BME280;10386;54.314;10.022;2023-03-15T09:35:33;101093.25;;;4.74;100.00
20455;BME280;10386;54.314;10.022;2023-03-15T09:38:00;101105.91;;;4.72;100.00
20455;BME280;10386;54.314;10.022;2023-03-15T09:40:29;101114.84;;;4.73;100.00
20455;BME280;10386;54.314;10.022;2023-03-15T09:43:21;101133.84;;;4.48;100.00
20455;BME280;10386;54.314;10.022;2023-03-15T09:49:10;101145.56;;;4.24;100.00
20455;BME280;10386;54.314;10.022;2023-03-15T09:51:50;101146.47;;;4.46;100.00
20455;BME280;10386;54.314;10.022;2023-03-15T09:54:24;101150.38;;;4.81;100.00
20455;BME280;10386;54.314;10.022;2023-03-15T09:57:03;101160.56;;;4.73;100.00
20455;BME280;10386;54.314;10.022;2023-03-15T09:59:36;101165.56;;;4.82;100.00
20455;BME280;10386;54.314;10.022;2023-03-15T10:02:29;101174.31;;;4.87;100.00
20455;BME280;10386;54.314;10.022;2023-03-15T10:05:00;101172.50;;;5.27;100.00
20455;BME280;10386;54.314;10.022;2023-03-15T10:07:29;101173.59;;;5.23;100.00
20455;BME280;10386;54.314;10.022;2023-03-15T10:09:57;101182.78;;;5.38;100.00
20455;BME280;10386;54.314;10.022;2023-03-15T10:12:33;101179.00;;;5.61;100.00
20455;BME280;10386;54.314;10.022;2023-03-15T10:15:30;101197.44;;;5.70;100.00
20455;BME280;10386;54.314;10.022;2023-03-15T10:20:48;101225.44;;;5.46;100.00
20455;BME280;10386;54.314;10.022;2023-03-15T10:23:23;101243.09;;;5.34;100.00
20455;BME280;10386;54.314;10.022;2023-03-15T10:25:54;101254.72;;;5.14;100.00
20455;BME280;10386;54.314;10.022;2023-03-15T10:28:27;101262.59;;;5.19;100.00
20455;BME280;10386;54.314;10.022;2023-03-15T10:30:59;101266.38;;;5.74;100.00
20455;BME280;10386;54.314;10.022;2023-03-15T10:33:32;101264.63;;;5.73;100.00
20455;BME280;10386;54.314;10.022;2023-03-15T10:36:01;101281.84;;;6.09;100.00
20455;BME280;10386;54.314;10.022;2023-03-15T10:38:37;101285.16;;;5.76;100.00
20455;BME280;10386;54.314;10.022;2023-03-15T10:41:05;101287.28;;;5.69;100.00
20455;BME280;10386;54.314;10.022;2023-03-15T10:43:33;101299.34;;;6.01;100.00
20455;BME280;10386;54.314;10.022;2023-03-15T10:46:05;101306.63;;;5.99;100.00
20455;BME280;10386;54.314;10.022;2023-03-15T10:48:38;101325.34;;;6.40;100.00
20455;BME280;10386;54.314;10.022;2023-03-15T10:51:19;101330.94;;;6.36;100.00
20455;BME280;10386;54.314;10.022;2023-03-15T10:54:10;101322.78;;;6.56;100.00
20455;BME280;10386;54.314;10.022;2023-03-15T10:59:19;101344.53;;;5.94;100.00
20455;BME280;10386;54.314;10.022;2023-03-15T11:01:47;101344.38;;;5.77;100.00
20455;BME280;10386;54.314;10.022;2023-03-15T11:04:17;101351.16;;;5.87;100.00
20455;BME280;10386;54.314;10.022;2023-03-15T11:09:24;101368.56;;;5.79;100.00
20455;BME280;10386;54.314;10.022;2023-03-15T11:12:03;101364.75;;;5.63;100.00
20455;BME280;10386;54.314;10.022;2023-03-15T11:14:42;101377.13;;;5.47;100.00
20455;BME280;10386;54.314;10.022;2023-03-15T11:17:25;101388.47;;;4.89;100.00
20455;BME280;10386;54.314;10.022;2023-03-15T11:19:55;101389.34;;;4.67;100.00
20455;BME280;10386;54.314;10.022;2023-03-15T11:22:22;101413.03;;;4.34;100.00
20455;BME280;10386;54.314;10.022;2023-03-15T11:24:50;101412.22;;;4.08;100.00
20455;BME280;10386;54.314;10.022;2023-03-15T11:27:18;101412.84;;;4.14;100.00
20455;BME280;10386;54.314;10.022;2023-03-15T11:29:54;101419.78;;;4.69;100.00
20455;BME280;10386;54.314;10.022;2023-03-15T11:32:24;101413.88;;;4.59;100.00
20455;BME280;10386;54.314;10.022;2023-03-15T11:35:11;101411.38;;;4.99;100.00
20455;BME280;10386;54.314;10.022;2023-03-15T11:37:46;101396.59;;;5.32;100.00
20455;BME280;10386;54.314;10.022;2023-03-15T11:40:19;101402.47;;;5.20;100.00
20455;BME280;10386;54.314;10.022;2023-03-15T11:42:55;101396.81;;;5.47;100.00
20455;BME280;10386;54.314;10.022;2023-03-15T11:45:33;101385.63;;;5.79;100.00
20455;BME280;10386;54.314;10.022;2023-03-15T11:50:56;101377.97;;;5.69;100.00
20455;BME280;10386;54.314;10.022;2023-03-15T11:53:57;101379.06;;;5.85;100.00
20455;BME280;10386;54.314;10.022;2023-03-15T12:07:05;101398.53;;;5.50;100.00
20455;BME280;10386;54.314;10.022;2023-03-15T12:09:44;101408.78;;;5.40;100.00
20455;BME280;10386;54.314;10.022;2023-03-15T12:20:35;101421.25;;;5.86;100.00
20455;BME280;10386;54.314;10.022;2023-03-15T12:25:58;101429.28;;;6.27;100.00
20455;BME280;10386;54.314;10.022;2023-03-15T12:28:35;101426.31;;;6.33;100.00
20455;BME280;10386;54.314;10.022;2023-03-15T12:31:06;101431.44;;;6.78;100.00
20455;BME280;10386;54.314;10.022;2023-03-15T12:33:52;101438.88;;;6.73;100.00
20455;BME280;10386;54.314;10.022;2023-03-15T12:36:31;101440.53;;;6.57;100.00
20455;BME280;10386;54.314;10.022;2023-03-15T12:39:34;101472.53;;;5.40;100.00
20455;BME280;10386;54.314;10.022;2023-03-15T12:42:03;101524.25;;;4.04;100.00
20455;BME280;10386;54.314;10.022;2023-03-15T12:47:17;101563.25;;;3.63;100.00
20455;BME280;10386;54.314;10.022;2023-03-15T12:49:45;101565.72;;;3.41;100.00
20455;BME280;10386;54.314;10.022;2023-03-15T12:54:53;101562.53;;;3.58;100.00
20455;BME280;10386;54.314;10.022;2023-03-15T12:57:26;101549.94;;;3.60;100.00
20455;BME280;10386;54.314;10.022;2023-03-15T13:00:10;101554.28;;;3.64;100.00
20455;BME280;10386;54.314;10.022;2023-03-15T13:02:48;101551.75;;;4.38;100.00
20455;BME280;10386;54.314;10.022;2023-03-15T13:05:29;101545.56;;;5.08;100.00
20455;BME280;10386;54.314;10.022;2023-03-15T13:08:41;101534.38;;;5.20;100.00
20455;BME280;10386;54.314;10.022;2023-03-15T13:11:22;101523.44;;;6.12;100.00
20455;BME280;10386;54.314;10.022;2023-03-15T13:16:26;101510.16;;;6.07;100.00
20455;BME280;10386;54.314;10.022;2023-03-15T13:19:11;101498.44;;;6.28;100.00
20455;BME280;10386;54.314;10.022;2023-03-15T13:24:39;101499.69;;;6.41;100.00
20455;BME280;10386;54.314;10.022;2023-03-15T13:29:39;101503.50;;;6.36;100.00
20455;BME280;10386;54.314;10.022;2023-03-15T13:32:17;101498.75;;;7.00;100.00
20455;BME280;10386;54.314;10.022;2023-03-15T13:34:45;101498.66;;;6.83;100.00
20455;BME280;10386;54.314;10.022;2023-03-15T13:37:23;101501.63;;;6.38;100.00
20455;BME280;10386;54.314;10.022;2023-03-15T13:40:00;101500.38;;;6.05;100.00
20455;BME280;10386;54.314;10.022;2023-03-15T13:42:27;101507.38;;;5.66;100.00
20455;BME280;10386;54.314;10.022;2023-03-15T13:45:14;101509.25;;;5.64;100.00
20455;BME280;10386;54.314;10.022;2023-03-15T13:47:42;101508.03;;;5.49;100.00
20455;BME280;10386;54.314;10.022;2023-03-15T13:50:19;101518.63;;;5.54;100.00